Time;durP1;ratioP1;P1;durP2;ratioP2;P2;SDS_P1;SDS_P2;PMS_P1;PMS_P2;Temp;Humidity;BMP_temperature;BMP_pressure;BME280_temperature;BME280_humidity;BME280_pressure;Samples;Min_cycle;Max_cycle;Signal;HPM_P1;HPM_P2
2020/12/21 00:02:16;;;;;;;28.17;16.25;;;;;;;;;;4990771;28;20115;-76
2020/12/21 00:04:41;;;;;;;25.45;16.65;;;;;;;;;;4974481;28;20043;-76
2020/12/21 00:07:07;;;;;;;28.63;18.33;;;;;;;;;;4975761;28;20503;-76
2020/12/21 00:09:32;;;;;;;24.35;15.57;;;;;;;;;;4976855;28;20031;-76
2020/12/21 00:11:57;;;;;;;27.05;16.98;;;;;;;;;;4976875;28;20528;-76
2020/12/21 00:14:23;;;;;;;25.88;16.13;;;;;;;;;;4976568;28;20125;-76
2020/12/21 00:16:50;;;;;;;20.92;14.45;;;;;;;;;;4976336;28;20053;-76
2020/12/21 00:19:18;;;;;;;20.05;14.77;;;;;;;;;;4976351;28;20054;-76
2020/12/21 00:21:44;;;;;;;17.83;13.15;;;;;;;;;;4976517;28;20046;-76
2020/12/21 00:24:10;;;;;;;22.33;15.52;;;;;;;;;;4976458;28;20089;-76
2020/12/21 00:26:35;;;;;;;19.25;14.30;;;;;;;;;;4975090;28;20038;-76
2020/12/21 00:29:02;;;;;;;20.10;14.25;;;;;;;;;;4976233;28;20126;-76
2020/12/21 00:31:29;;;;;;;20.63;12.45;;;;;;;;;;4976594;28;20038;-76
2020/12/21 00:33:56;;;;;;;18.67;13.02;;;;;;;;;;4976377;28;20045;-76
2020/12/21 00:36:22;;;;;;;21.42;13.60;;;;;;;;;;4976514;28;20067;-76
2020/12/21 00:38:48;;;;;;;21.35;14.20;;;;;;;;;;4976285;28;20022;-76
2020/12/21 00:41:16;;;;;;;23.00;13.55;;;;;;;;;;4976307;28;20679;-77
2020/12/21 00:43:45;;;;;;;21.45;15.02;;;;;;;;;;4976370;28;20035;-76
2020/12/21 00:46:16;;;;;;;22.00;14.15;;;;;;;;;;4976010;28;20038;-76
2020/12/21 00:48:42;;;;;;;19.88;13.07;;;;;;;;;;4975515;28;20047;-76
2020/12/21 00:51:09;;;;;;;22.58;16.02;;;;;;;;;;4990439;28;20115;-76
2020/12/21 00:53:34;;;;;;;19.23;13.85;;;;;;;;;;4990841;28;20026;-76
2020/12/21 00:56:02;;;;;;;18.45;13.18;;;;;;;;;;4975829;28;20030;-77
2020/12/21 00:58:29;;;;;;;17.70;12.93;;;;;;;;;;4991083;28;20053;-76
2020/12/21 01:00:55;;;;;;;19.80;13.65;;;;;;;;;;4975797;28;20513;-76
2020/12/21 01:03:20;;;;;;;18.75;12.82;;;;;;;;;;4975706;28;20047;-76
2020/12/21 01:05:46;;;;;;;13.18;10.20;;;;;;;;;;4975650;28;20042;-76
2020/12/21 01:08:11;;;;;;;16.23;10.43;;;;;;;;;;4975664;28;20457;-75
2020/12/21 01:10:38;;;;;;;25.15;12.27;;;;;;;;;;4975595;28;20065;-75
2020/12/21 01:13:03;;;;;;;15.02;11.43;;;;;;;;;;4975702;28;20132;-76
2020/12/21 01:15:29;;;;;;;18.58;11.35;;;;;;;;;;4974617;28;20133;-76
2020/12/21 01:17:54;;;;;;;24.90;14.95;;;;;;;;;;4990453;28;20070;-76
2020/12/21 01:20:20;;;;;;;17.95;11.52;;;;;;;;;;4975744;28;20554;-76
2020/12/21 01:22:45;;;;;;;17.45;12.38;;;;;;;;;;4975446;28;20065;-76
2020/12/21 01:25:10;;;;;;;18.40;12.20;;;;;;;;;;4974851;28;20484;-76
2020/12/21 01:27:36;;;;;;;14.68;10.32;;;;;;;;;;4990399;28;20039;-76
2020/12/21 01:30:03;;;;;;;12.75;9.75;;;;;;;;;;4990746;28;20035;-76
2020/12/21 01:32:28;;;;;;;13.07;9.55;;;;;;;;;;4974362;28;20046;-76
2020/12/21 01:34:54;;;;;;;13.43;9.07;;;;;;;;;;4955959;28;20448;-76
2020/12/21 01:37:19;;;;;;;12.70;9.50;;;;;;;;;;4970781;28;20137;-76
2020/12/21 01:39:48;;;;;;;32.03;11.02;;;;;;;;;;4970311;28;20043;-76
2020/12/21 01:42:15;;;;;;;30.27;10.18;;;;;;;;;;4955663;28;20051;-76
2020/12/21 01:44:42;;;;;;;87.28;12.63;;;;;;;;;;4955977;28;20031;-76
2020/12/21 01:47:09;;;;;;;18.92;12.30;;;;;;;;;;4966100;28;20043;-76
2020/12/21 01:49:35;;;;;;;26.02;10.93;;;;;;;;;;4975263;28;20045;-76
2020/12/21 01:52:00;;;;;;;15.07;10.70;;;;;;;;;;4990198;28;20110;-76
2020/12/21 01:54:26;;;;;;;15.35;9.63;;;;;;;;;;4974758;28;20038;-76
2020/12/21 01:56:52;;;;;;;12.70;9.55;;;;;;;;;;4974511;28;20043;-76
2020/12/21 01:59:18;;;;;;;13.77;9.82;;;;;;;;;;4975126;28;20042;-76
2020/12/21 02:01:45;;;;;;;11.90;8.93;;;;;;;;;;4975044;28;20064;-76
2020/12/21 02:04:10;;;;;;;15.50;10.30;;;;;;;;;;4974951;28;20042;-76
2020/12/21 02:06:36;;;;;;;18.35;10.35;;;;;;;;;;4974633;28;20461;-76
2020/12/21 02:09:02;;;;;;;16.38;10.98;;;;;;;;;;4974679;28;20460;-76
2020/12/21 02:11:27;;;;;;;13.85;10.48;;;;;;;;;;4989787;28;20117;-76
2020/12/21 02:13:53;;;;;;;14.15;9.88;;;;;;;;;;4974650;28;20078;-75
2020/12/21 02:16:18;;;;;;;26.15;15.13;;;;;;;;;;4974387;28;20097;-76
2020/12/21 02:18:44;;;;;;;16.77;11.60;;;;;;;;;;4974608;28;20047;-76
2020/12/21 02:21:10;;;;;;;15.75;11.85;;;;;;;;;;4974112;28;20041;-78
2020/12/21 02:23:35;;;;;;;15.43;11.38;;;;;;;;;;4974202;28;20034;-76
2020/12/21 02:26:00;;;;;;;16.02;10.73;;;;;;;;;;4974109;28;20043;-76
2020/12/21 02:28:26;;;;;;;22.33;12.70;;;;;;;;;;4974306;28;20039;-76
2020/12/21 02:30:51;;;;;;;21.20;11.27;;;;;;;;;;4974794;28;20046;-75
2020/12/21 02:33:19;;;;;;;73.20;13.50;;;;;;;;;;4974506;28;20548;-76
2020/12/21 02:35:44;;;;;;;20.52;12.45;;;;;;;;;;4974329;28;20118;-76
2020/12/21 02:38:10;;;;;;;17.27;11.60;;;;;;;;;;4974358;28;20046;-76
2020/12/21 02:40:36;;;;;;;14.75;10.80;;;;;;;;;;4998504;28;20031;-76
2020/12/21 02:43:02;;;;;;;16.90;11.23;;;;;;;;;;4993517;28;20035;-76
2020/12/21 02:45:28;;;;;;;11.40;9.13;;;;;;;;;;5003242;28;20046;-76
2020/12/21 02:47:54;;;;;;;64.43;9.85;;;;;;;;;;4974071;28;20101;-76
2020/12/21 02:50:19;;;;;;;11.35;8.48;;;;;;;;;;4988798;28;20082;-76
2020/12/21 02:52:44;;;;;;;12.95;9.95;;;;;;;;;;4976585;28;20089;-76
2020/12/21 02:55:10;;;;;;;10.27;9.18;;;;;;;;;;4978400;28;20476;-76
2020/12/21 02:57:36;;;;;;;61.42;11.73;;;;;;;;;;4978145;28;20109;-76
2020/12/21 03:00:01;;;;;;;15.82;10.65;;;;;;;;;;4978139;28;20115;-76
2020/12/21 03:02:27;;;;;;;17.63;10.18;;;;;;;;;;4978344;28;20416;-75
2020/12/21 03:04:52;;;;;;;10.98;8.60;;;;;;;;;;4977815;28;20113;-76
2020/12/21 03:07:18;;;;;;;50.08;8.10;;;;;;;;;;4992686;28;20380;-76
2020/12/21 03:09:43;;;;;;;15.90;6.97;;;;;;;;;;4978023;28;20481;-75
2020/12/21 03:12:08;;;;;;;14.70;6.75;;;;;;;;;;4977982;28;20038;-76
2020/12/21 03:14:33;;;;;;;8.10;6.60;;;;;;;;;;4978021;28;20389;-76
2020/12/21 03:16:59;;;;;;;61.22;8.57;;;;;;;;;;4978051;28;20090;-76
2020/12/21 03:19:24;;;;;;;10.95;9.05;;;;;;;;;;4977865;28;20448;-77
2020/12/21 03:21:50;;;;;;;10.93;8.75;;;;;;;;;;4977797;28;20108;-77
2020/12/21 03:24:15;;;;;;;10.85;7.97;;;;;;;;;;4977807;28;20043;-77
2020/12/21 03:26:40;;;;;;;8.38;6.80;;;;;;;;;;4977610;28;20042;-77
2020/12/21 03:29:06;;;;;;;8.65;6.35;;;;;;;;;;4977451;28;20384;-76
2020/12/21 03:31:31;;;;;;;8.00;6.57;;;;;;;;;;4977319;28;20078;-76
2020/12/21 03:33:56;;;;;;;8.07;6.63;;;;;;;;;;4992669;28;20129;-76
2020/12/21 03:36:22;;;;;;;11.00;7.53;;;;;;;;;;4977117;28;20038;-76
2020/12/21 03:38:47;;;;;;;8.82;7.10;;;;;;;;;;4977406;28;20121;-76
2020/12/21 03:41:13;;;;;;;22.88;7.25;;;;;;;;;;4977402;28;20082;-76
2020/12/21 03:43:38;;;;;;;9.02;6.80;;;;;;;;;;4977290;28;20039;-76
2020/12/21 03:46:03;;;;;;;10.15;7.22;;;;;;;;;;4985895;28;20049;-77
2020/12/21 03:48:29;;;;;;;20.45;8.27;;;;;;;;;;4977081;28;20049;-77
2020/12/21 03:50:54;;;;;;;32.38;9.05;;;;;;;;;;4977240;28;20046;-76
2020/12/21 03:53:19;;;;;;;13.85;8.90;;;;;;;;;;4977399;28;20050;-76
2020/12/21 03:55:45;;;;;;;15.13;8.90;;;;;;;;;;4975997;28;20388;-75
2020/12/21 03:58:10;;;;;;;13.23;7.65;;;;;;;;;;4975988;28;20454;-76
2020/12/21 04:00:36;;;;;;;11.35;7.53;;;;;;;;;;4977158;28;20039;-79
2020/12/21 04:03:01;;;;;;;10.50;7.78;;;;;;;;;;4975486;28;20042;-77
2020/12/21 04:05:26;;;;;;;48.45;10.55;;;;;;;;;;4976606;28;20129;-75
2020/12/21 04:07:52;;;;;;;12.60;8.88;;;;;;;;;;4975806;28;20078;-74
2020/12/21 04:10:17;;;;;;;13.35;9.00;;;;;;;;;;4976797;28;20125;-74
2020/12/21 04:12:43;;;;;;;12.20;9.10;;;;;;;;;;4976935;28;20134;-74
2020/12/21 04:15:09;;;;;;;11.38;8.18;;;;;;;;;;4970987;28;20027;-74
2020/12/21 04:17:34;;;;;;;11.20;7.80;;;;;;;;;;4966394;28;20047;-74
2020/12/21 04:20:00;;;;;;;25.83;6.63;;;;;;;;;;4970930;28;20082;-75
2020/12/21 04:22:25;;;;;;;8.00;6.72;;;;;;;;;;4957268;28;20031;-74
2020/12/21 04:24:50;;;;;;;9.55;7.50;;;;;;;;;;4956413;29;20471;-74
2020/12/21 04:27:16;;;;;;;30.90;7.15;;;;;;;;;;4967868;28;20039;-74
2020/12/21 04:29:41;;;;;;;11.32;8.32;;;;;;;;;;4976413;28;20517;-74
2020/12/21 04:32:07;;;;;;;11.93;6.60;;;;;;;;;;4976565;28;20039;-74
2020/12/21 04:34:32;;;;;;;34.08;7.55;;;;;;;;;;4991260;28;20034;-74
2020/12/21 04:36:58;;;;;;;14.05;7.47;;;;;;;;;;4976221;28;20033;-74
2020/12/21 04:39:23;;;;;;;20.05;6.72;;;;;;;;;;4976371;28;20061;-74
2020/12/21 04:41:56;;;;;;;60.60;9.85;;;;;;;;;;4976396;28;20065;-74
2020/12/21 04:44:22;;;;;;;10.73;8.35;;;;;;;;;;4976433;28;20420;-74
2020/12/21 04:46:55;;;;;;;10.38;7.80;;;;;;;;;;4974299;28;20398;-74
2020/12/21 04:49:21;;;;;;;8.85;6.43;;;;;;;;;;4976122;28;20043;-74
2020/12/21 04:51:47;;;;;;;8.77;7.38;;;;;;;;;;4976139;28;20358;-74
2020/12/21 04:54:13;;;;;;;7.82;6.47;;;;;;;;;;4976115;28;20101;-74
2020/12/21 04:56:41;;;;;;;10.45;7.22;;;;;;;;;;4976017;28;20117;-74
2020/12/21 04:59:08;;;;;;;7.68;6.40;;;;;;;;;;4991031;28;20019;-74
2020/12/21 05:01:33;;;;;;;13.68;6.85;;;;;;;;;;4975829;28;20078;-74
2020/12/21 05:03:59;;;;;;;10.77;6.28;;;;;;;;;;4975806;28;20066;-74
2020/12/21 05:06:24;;;;;;;53.50;7.57;;;;;;;;;;4975997;28;20030;-74
2020/12/21 05:09:23;;;;;;;17.75;8.23;;;;;;;;;;4975810;28;20097;-74
2020/12/21 05:11:56;;;;;;;12.30;8.80;;;;;;;;;;4967837;28;20049;-74
2020/12/21 05:14:30;;;;;;;13.50;7.78;;;;;;;;;;4974754;28;20126;-74
2020/12/21 05:16:55;;;;;;;36.20;9.75;;;;;;;;;;4975551;28;20039;-74
2020/12/21 05:19:24;;;;;;;12.02;8.70;;;;;;;;;;4975044;28;20043;-74
2020/12/21 05:21:53;;;;;;;36.70;8.77;;;;;;;;;;4975671;28;20035;-74
2020/12/21 05:24:22;;;;;;;10.20;7.97;;;;;;;;;;4975632;28;20039;-74
2020/12/21 05:26:48;;;;;;;9.88;7.65;;;;;;;;;;4975293;28;20042;-74
2020/12/21 05:29:23;;;;;;;50.08;8.82;;;;;;;;;;4975359;28;20043;-74
2020/12/21 05:31:49;;;;;;;10.07;7.07;;;;;;;;;;4975580;28;20043;-74
2020/12/21 05:34:27;;;;;;;11.20;8.30;;;;;;;;;;4975440;28;20042;-74
2020/12/21 05:36:53;;;;;;;17.58;9.32;;;;;;;;;;4975166;28;20093;-74
2020/12/21 05:39:19;;;;;;;10.20;7.72;;;;;;;;;;4975292;28;20043;-74
2020/12/21 05:41:45;;;;;;;18.42;8.90;;;;;;;;;;4975210;28;20038;-74
2020/12/21 05:44:11;;;;;;;19.25;6.65;;;;;;;;;;4975192;28;20043;-74
2020/12/21 05:46:37;;;;;;;9.00;6.47;;;;;;;;;;4975019;28;20045;-74
2020/12/21 05:49:03;;;;;;;8.23;6.38;;;;;;;;;;4974104;28;20034;-74
2020/12/21 05:51:30;;;;;;;19.27;6.40;;;;;;;;;;4974613;28;20042;-74
2020/12/21 05:53:58;;;;;;;10.88;6.60;;;;;;;;;;4975103;28;20397;-74
2020/12/21 05:56:25;;;;;;;15.27;7.28;;;;;;;;;;4974943;28;20148;-74
2020/12/21 05:58:52;;;;;;;7.93;6.47;;;;;;;;;;4974354;28;20045;-74
2020/12/21 06:01:18;;;;;;;23.58;8.10;;;;;;;;;;4973843;28;20444;-74
2020/12/21 06:03:59;;;;;;;10.48;8.13;;;;;;;;;;4973692;28;20077;-74
2020/12/21 06:06:28;;;;;;;10.45;7.85;;;;;;;;;;4974742;28;20041;-74
2020/12/21 06:08:56;;;;;;;20.83;7.80;;;;;;;;;;4974876;28;20038;-74
2020/12/21 06:11:26;;;;;;;40.05;9.43;;;;;;;;;;4974753;28;20093;-73
2020/12/21 06:14:04;;;;;;;10.40;7.60;;;;;;;;;;4973637;28;20089;-74
2020/12/21 06:16:32;;;;;;;9.57;6.70;;;;;;;;;;4974277;28;20464;-74
2020/12/21 06:19:12;;;;;;;13.35;7.47;;;;;;;;;;4973299;28;20046;-73
2020/12/21 06:21:48;;;;;;;26.67;8.20;;;;;;;;;;4974656;28;20049;-74
2020/12/21 06:24:18;;;;;;;10.02;7.78;;;;;;;;;;4974720;28;20046;-74
2020/12/21 06:26:44;;;;;;;11.02;8.15;;;;;;;;;;4973072;28;20472;-74
2020/12/21 06:29:16;;;;;;;10.02;7.43;;;;;;;;;;4974335;28;20130;-74
2020/12/21 06:31:47;;;;;;;47.83;7.00;;;;;;;;;;4974407;28;20070;-74
2020/12/21 06:34:29;;;;;;;11.38;7.85;;;;;;;;;;4974583;28;20357;-74
2020/12/21 06:37:12;;;;;;;15.90;7.45;;;;;;;;;;4973141;28;20035;-74
2020/12/21 06:39:38;;;;;;;28.58;9.27;;;;;;;;;;4974353;28;20125;-74
2020/12/21 06:42:14;;;;;;;13.15;8.07;;;;;;;;;;4989228;28;20043;-73
2020/12/21 06:44:42;;;;;;;25.75;11.75;;;;;;;;;;4974521;28;20662;-73
2020/12/21 06:47:08;;;;;;;12.93;8.90;;;;;;;;;;4972998;28;20392;-73
2020/12/21 06:49:34;;;;;;;14.55;9.60;;;;;;;;;;4974257;28;20042;-73
2020/12/21 06:52:00;;;;;;;12.90;9.20;;;;;;;;;;4974164;28;20041;-74
2020/12/21 06:54:25;;;;;;;16.15;11.25;;;;;;;;;;4974010;28;20085;-75
2020/12/21 06:56:51;;;;;;;14.77;10.07;;;;;;;;;;4972907;28;20035;-74
2020/12/21 06:59:18;;;;;;;16.45;10.90;;;;;;;;;;4973250;28;20027;-73
2020/12/21 07:01:46;;;;;;;19.52;11.27;;;;;;;;;;4974069;28;20042;-73
2020/12/21 07:04:13;;;;;;;14.35;9.82;;;;;;;;;;4974183;28;20046;-74
2020/12/21 07:06:40;;;;;;;16.70;9.40;;;;;;;;;;4973706;28;20035;-75
2020/12/21 07:09:06;;;;;;;15.23;10.63;;;;;;;;;;4972751;28;20080;-74
2020/12/21 07:11:32;;;;;;;14.35;10.35;;;;;;;;;;4989164;28;20035;-73
2020/12/21 07:13:57;;;;;;;115.85;14.10;;;;;;;;;;4974293;28;20090;-72
2020/12/21 07:16:23;;;;;;;25.80;12.10;;;;;;;;;;4974007;28;20141;-75
2020/12/21 07:18:49;;;;;;;15.73;10.82;;;;;;;;;;4988913;28;20043;-74
2020/12/21 07:21:16;;;;;;;19.85;9.77;;;;;;;;;;4972696;28;20481;-76
2020/12/21 07:23:43;;;;;;;16.15;11.18;;;;;;;;;;4974056;28;20034;-75
2020/12/21 07:26:11;;;;;;;18.65;10.05;;;;;;;;;;4974003;28;20031;-75
2020/12/21 07:28:37;;;;;;;14.23;10.25;;;;;;;;;;4973911;28;20480;-75
2020/12/21 07:31:17;;;;;;;13.68;9.07;;;;;;;;;;4972609;28;20141;-75
2020/12/21 07:33:56;;;;;;;14.90;9.43;;;;;;;;;;4973050;28;20053;-76
2020/12/21 07:36:30;;;;;;;13.93;9.55;;;;;;;;;;4974051;28;20123;-75
2020/12/21 07:39:09;;;;;;;17.98;12.05;;;;;;;;;;4976479;28;20046;-77
2020/12/21 07:41:38;;;;;;;19.88;11.25;;;;;;;;;;4977062;28;20042;-73
2020/12/21 07:44:10;;;;;;;17.27;9.70;;;;;;;;;;4975741;28;20152;-72
2020/12/21 07:46:45;;;;;;;16.75;11.45;;;;;;;;;;4975962;28;20038;-74
2020/12/21 07:49:12;;;;;;;15.52;10.52;;;;;;;;;;4992097;28;20035;-74
2020/12/21 07:51:40;;;;;;;15.30;10.32;;;;;;;;;;4976761;28;20045;-75
2020/12/21 07:54:06;;;;;;;34.85;12.75;;;;;;;;;;4977401;28;20077;-76
2020/12/21 07:56:32;;;;;;;17.23;10.77;;;;;;;;;;4976832;28;20058;-75
2020/12/21 07:58:57;;;;;;;16.83;9.95;;;;;;;;;;4992143;28;20206;-76
2020/12/21 08:01:23;;;;;;;16.77;11.18;;;;;;;;;;4976422;28;20050;-76
2020/12/21 08:03:53;;;;;;;16.45;10.35;;;;;;;;;;4976352;28;20039;-75
2020/12/21 08:06:23;;;;;;;18.95;11.25;;;;;;;;;;4977001;28;20042;-75
2020/12/21 08:08:50;;;;;;;17.10;10.23;;;;;;;;;;4976833;28;20169;-76
2020/12/21 08:11:18;;;;;;;15.77;10.02;;;;;;;;;;4976421;28;20093;-73
2020/12/21 08:13:50;;;;;;;13.23;9.43;;;;;;;;;;4991998;28;20113;-73
2020/12/21 08:16:23;;;;;;;15.27;9.65;;;;;;;;;;4976302;28;20464;-72
2020/12/21 08:18:50;;;;;;;13.73;9.68;;;;;;;;;;4991185;28;20047;-73
2020/12/21 08:21:16;;;;;;;13.88;9.13;;;;;;;;;;4975585;28;20074;-73
2020/12/21 08:23:51;;;;;;;14.20;9.68;;;;;;;;;;4976817;28;20071;-77
2020/12/21 08:26:16;;;;;;;12.63;9.60;;;;;;;;;;4976710;28;20046;-76
2020/12/21 08:28:41;;;;;;;16.33;9.52;;;;;;;;;;4976384;28;20062;-77
2020/12/21 08:31:13;;;;;;;13.25;9.48;;;;;;;;;;4976489;28;20043;-76
2020/12/21 08:33:42;;;;;;;32.28;10.98;;;;;;;;;;4991686;28;20038;-76
2020/12/21 08:36:17;;;;;;;12.10;9.52;;;;;;;;;;4975223;28;20081;-77
2020/12/21 08:38:43;;;;;;;18.75;10.20;;;;;;;;;;4975436;28;20031;-75
2020/12/21 08:41:08;;;;;;;14.57;10.75;;;;;;;;;;4976406;28;20072;-76
2020/12/21 08:43:33;;;;;;;16.17;11.63;;;;;;;;;;4991447;28;20037;-76
2020/12/21 08:45:59;;;;;;;14.30;10.20;;;;;;;;;;4976129;28;20504;-76
2020/12/21 08:48:25;;;;;;;13.63;9.52;;;;;;;;;;4975935;28;20073;-75
2020/12/21 08:50:51;;;;;;;14.38;9.70;;;;;;;;;;4976233;28;20042;-74
2020/12/21 08:53:16;;;;;;;15.88;9.60;;;;;;;;;;4976098;28;20049;-74
2020/12/21 08:55:42;;;;;;;14.60;9.57;;;;;;;;;;4975956;28;20050;-74
2020/12/21 08:58:07;;;;;;;13.45;9.50;;;;;;;;;;4990577;28;20026;-74
2020/12/21 09:00:32;;;;;;;14.43;9.85;;;;;;;;;;4990957;28;20483;-74
2020/12/21 09:02:58;;;;;;;18.77;11.82;;;;;;;;;;4975987;28;20049;-74
2020/12/21 09:05:23;;;;;;;58.85;13.50;;;;;;;;;;4990962;28;20065;-73
2020/12/21 09:07:48;;;;;;;17.15;10.48;;;;;;;;;;4990578;28;20503;-74
2020/12/21 09:10:14;;;;;;;17.58;12.00;;;;;;;;;;4975542;28;20050;-73
2020/12/21 09:12:39;;;;;;;19.10;12.10;;;;;;;;;;4990676;28;20047;-73
2020/12/21 09:15:04;;;;;;;16.23;11.02;;;;;;;;;;4975164;28;20038;-75
2020/12/21 09:17:29;;;;;;;15.43;10.45;;;;;;;;;;4974787;28;20035;-74
2020/12/21 09:19:55;;;;;;;15.80;10.88;;;;;;;;;;4975665;28;20121;-74
2020/12/21 09:22:20;;;;;;;16.75;11.07;;;;;;;;;;4990523;28;20042;-73
2020/12/21 09:24:49;;;;;;;20.45;11.07;;;;;;;;;;4974652;28;20034;-73
2020/12/21 09:27:14;;;;;;;15.93;11.38;;;;;;;;;;4990363;28;20090;-73
2020/12/21 09:29:40;;;;;;;17.15;10.60;;;;;;;;;;4990609;28;20049;-74
2020/12/21 09:32:05;;;;;;;16.60;11.15;;;;;;;;;;4975498;28;20101;-74
2020/12/21 09:34:30;;;;;;;15.50;10.32;;;;;;;;;;4975230;28;20057;-74
2020/12/21 09:36:56;;;;;;;17.02;10.98;;;;;;;;;;4975375;28;20039;-75
2020/12/21 09:39:23;;;;;;;17.63;11.02;;;;;;;;;;4975379;28;20031;-74
2020/12/21 09:41:51;;;;;;;17.77;9.45;;;;;;;;;;4974493;28;20037;-74
2020/12/21 09:44:16;;;;;;;15.10;9.60;;;;;;;;;;4958170;28;20419;-73
2020/12/21 09:46:42;;;;;;;16.35;9.93;;;;;;;;;;4975163;28;20039;-73
2020/12/21 09:49:07;;;;;;;13.95;8.50;;;;;;;;;;4975000;28;20039;-72
2020/12/21 09:51:32;;;;;;;15.35;10.50;;;;;;;;;;4989899;28;20041;-73
2020/12/21 09:53:58;;;;;;;14.90;10.07;;;;;;;;;;4975019;28;20053;-73
2020/12/21 09:56:23;;;;;;;12.82;9.23;;;;;;;;;;4974472;28;20904;-73
2020/12/21 09:58:49;;;;;;;18.83;8.93;;;;;;;;;;4989864;28;20066;-74
2020/12/21 10:01:14;;;;;;;16.15;9.00;;;;;;;;;;4974285;28;20069;-74
2020/12/21 10:03:40;;;;;;;12.52;8.40;;;;;;;;;;4974957;28;20097;-74
2020/12/21 10:06:10;;;;;;;12.77;8.85;;;;;;;;;;4974756;28;20038;-74
2020/12/21 10:08:37;;;;;;;14.40;8.70;;;;;;;;;;4974513;28;20469;-74
2020/12/21 10:11:03;;;;;;;15.80;8.38;;;;;;;;;;4974358;28;20381;-74
2020/12/21 10:13:30;;;;;;;10.73;7.22;;;;;;;;;;4974791;28;20041;-74
2020/12/21 10:15:55;;;;;;;15.43;8.27;;;;;;;;;;4974589;28;20084;-74
2020/12/21 10:18:20;;;;;;;11.65;8.48;;;;;;;;;;4973760;28;20502;-74
2020/12/21 10:20:46;;;;;;;16.23;9.45;;;;;;;;;;4989330;28;20570;-74
2020/12/21 10:23:12;;;;;;;23.25;13.15;;;;;;;;;;4973346;28;20409;-74
2020/12/21 10:25:37;;;;;;;17.13;11.50;;;;;;;;;;4974137;28;20100;-74
2020/12/21 10:28:03;;;;;;;20.10;12.63;;;;;;;;;;4973776;28;20043;-74
2020/12/21 10:30:29;;;;;;;25.83;14.10;;;;;;;;;;4974452;28;20038;-73
2020/12/21 10:32:55;;;;;;;20.38;12.70;;;;;;;;;;4989245;28;20501;-74
2020/12/21 10:35:20;;;;;;;26.55;13.75;;;;;;;;;;4974317;28;20062;-73
2020/12/21 10:37:46;;;;;;;20.67;12.10;;;;;;;;;;4989228;28;20046;-73
2020/12/21 10:40:11;;;;;;;22.67;12.52;;;;;;;;;;4974420;28;20125;-73
2020/12/21 10:42:36;;;;;;;16.50;11.10;;;;;;;;;;4974443;28;20089;-73
2020/12/21 10:45:02;;;;;;;18.45;10.93;;;;;;;;;;4974469;28;20035;-73
2020/12/21 10:47:29;;;;;;;47.20;11.25;;;;;;;;;;4973586;28;20548;-72
2020/12/21 10:49:55;;;;;;;38.25;12.57;;;;;;;;;;4973840;28;20118;-72
2020/12/21 10:52:20;;;;;;;26.13;11.07;;;;;;;;;;4956857;28;20142;-72
2020/12/21 10:54:45;;;;;;;22.88;8.68;;;;;;;;;;4974200;28;20043;-73
2020/12/21 10:57:11;;;;;;;18.17;8.88;;;;;;;;;;4974004;28;20061;-72
2020/12/21 10:59:36;;;;;;;18.38;7.80;;;;;;;;;;4973502;28;20386;-75
2020/12/21 11:02:02;;;;;;;14.20;7.43;;;;;;;;;;4972827;28;20436;-74
2020/12/21 11:04:27;;;;;;;18.23;8.52;;;;;;;;;;4974150;28;20023;-76
2020/12/21 11:06:54;;;;;;;21.50;8.50;;;;;;;;;;4974163;28;20125;-76
2020/12/21 11:09:19;;;;;;;16.25;7.82;;;;;;;;;;4972977;28;20066;-74
2020/12/21 11:11:45;;;;;;;14.73;7.40;;;;;;;;;;4974117;28;20126;-77
2020/12/21 11:14:10;;;;;;;14.40;7.07;;;;;;;;;;4992484;28;20194;-76
2020/12/21 11:16:36;;;;;;;13.82;6.90;;;;;;;;;;4993010;28;20049;-77
2020/12/21 11:19:01;;;;;;;11.73;6.55;;;;;;;;;;4977911;28;20118;-75
2020/12/21 11:21:26;;;;;;;11.63;6.50;;;;;;;;;;4978453;28;20030;-78
2020/12/21 11:23:52;;;;;;;11.75;7.20;;;;;;;;;;4978122;28;20424;-76
2020/12/21 11:26:19;;;;;;;11.70;6.40;;;;;;;;;;4977755;28;20077;-77
2020/12/21 11:28:46;;;;;;;18.27;7.72;;;;;;;;;;4960236;28;20031;-76
2020/12/21 11:31:14;;;;;;;15.52;6.70;;;;;;;;;;4976686;28;20038;-76
2020/12/21 11:33:39;;;;;;;16.60;8.27;;;;;;;;;;4977634;28;20440;-76
2020/12/21 11:36:05;;;;;;;14.02;7.07;;;;;;;;;;4977767;28;20125;-78
2020/12/21 11:38:30;;;;;;;15.77;6.93;;;;;;;;;;4978139;28;20041;-77
2020/12/21 11:40:56;;;;;;;15.10;6.28;;;;;;;;;;4978272;28;20073;-77
2020/12/21 11:43:21;;;;;;;14.48;7.13;;;;;;;;;;4978077;28;20034;-77
2020/12/21 11:45:48;;;;;;;14.18;6.15;;;;;;;;;;4977428;28;20403;-75
2020/12/21 11:48:13;;;;;;;13.13;5.57;;;;;;;;;;4963131;28;20043;-76
2020/12/21 11:50:39;;;;;;;12.75;5.70;;;;;;;;;;4956813;29;20437;-76
2020/12/21 11:53:04;;;;;;;16.58;6.45;;;;;;;;;;4956693;29;20094;-76
2020/12/21 11:55:30;;;;;;;13.55;6.88;;;;;;;;;;4956746;28;20039;-76
2020/12/21 11:57:55;;;;;;;11.38;6.03;;;;;;;;;;4957790;28;20035;-76
2020/12/21 12:00:20;;;;;;;17.67;6.72;;;;;;;;;;4956846;28;20039;-76
2020/12/21 12:02:46;;;;;;;10.82;6.07;;;;;;;;;;4966287;28;20039;-76
2020/12/21 12:05:12;;;;;;;14.10;6.20;;;;;;;;;;4976974;28;20030;-76
2020/12/21 12:07:38;;;;;;;11.40;5.00;;;;;;;;;;4976847;28;20045;-77
2020/12/21 12:10:04;;;;;;;12.63;5.13;;;;;;;;;;4976968;28;20035;-76
2020/12/21 12:12:29;;;;;;;12.88;4.78;;;;;;;;;;4976949;28;20026;-76
2020/12/21 12:14:55;;;;;;;11.05;3.95;;;;;;;;;;4976857;28;20039;-76
2020/12/21 12:17:20;;;;;;;11.10;4.38;;;;;;;;;;4976908;28;20038;-76
2020/12/21 12:19:46;;;;;;;9.32;4.50;;;;;;;;;;4976704;28;20085;-76
2020/12/21 12:22:11;;;;;;;10.25;4.50;;;;;;;;;;4976644;28;20039;-76
2020/12/21 12:24:37;;;;;;;12.98;4.82;;;;;;;;;;4976293;28;20050;-75
2020/12/21 12:27:02;;;;;;;15.07;5.38;;;;;;;;;;4976223;28;20049;-76
2020/12/21 12:29:29;;;;;;;8.10;4.45;;;;;;;;;;4976502;28;20043;-76
2020/12/21 12:31:54;;;;;;;14.55;5.38;;;;;;;;;;4976607;28;20488;-76
2020/12/21 12:34:20;;;;;;;14.43;5.05;;;;;;;;;;4976711;28;20041;-76
2020/12/21 12:36:46;;;;;;;11.52;4.13;;;;;;;;;;4976511;28;20038;-76
2020/12/21 12:39:11;;;;;;;12.88;4.28;;;;;;;;;;4991453;28;20460;-76
2020/12/21 12:41:41;;;;;;;12.40;4.20;;;;;;;;;;4976755;28;20092;-76
2020/12/21 12:44:07;;;;;;;9.75;3.75;;;;;;;;;;4991571;28;20093;-76
2020/12/21 12:46:33;;;;;;;15.60;4.18;;;;;;;;;;4976193;28;20039;-76
2020/12/21 12:49:00;;;;;;;13.98;4.93;;;;;;;;;;4976506;28;20084;-76
2020/12/21 12:51:25;;;;;;;20.13;5.18;;;;;;;;;;4976216;28;20042;-75
2020/12/21 12:53:51;;;;;;;12.60;4.32;;;;;;;;;;4976126;28;20054;-75
2020/12/21 12:56:16;;;;;;;11.60;4.57;;;;;;;;;;4976045;28;20041;-75
2020/12/21 12:58:41;;;;;;;9.45;4.55;;;;;;;;;;4975919;28;20031;-75
2020/12/21 13:01:07;;;;;;;13.57;4.30;;;;;;;;;;4974175;28;20443;-75
2020/12/21 13:03:34;;;;;;;12.80;4.68;;;;;;;;;;4976011;28;20043;-75
2020/12/21 13:05:59;;;;;;;19.45;5.28;;;;;;;;;;4975936;28;20047;-76
2020/12/21 13:08:25;;;;;;;9.70;4.13;;;;;;;;;;4990700;28;20049;-75
2020/12/21 13:10:50;;;;;;;14.15;4.38;;;;;;;;;;4975386;28;20082;-75
2020/12/21 13:13:15;;;;;;;11.13;4.72;;;;;;;;;;4975877;28;20030;-75
2020/12/21 13:15:41;;;;;;;12.93;5.47;;;;;;;;;;4974768;28;20113;-75
2020/12/21 13:18:06;;;;;;;9.75;5.40;;;;;;;;;;4975340;28;20050;-75
2020/12/21 13:20:31;;;;;;;11.68;4.80;;;;;;;;;;4974613;28;20085;-75
2020/12/21 13:22:57;;;;;;;14.43;4.63;;;;;;;;;;4974072;28;20031;-76
2020/12/21 13:25:22;;;;;;;10.15;4.40;;;;;;;;;;4989769;28;20515;-75
2020/12/21 13:27:48;;;;;;;13.45;5.88;;;;;;;;;;4973215;28;20027;-75
2020/12/21 13:30:15;;;;;;;12.35;5.25;;;;;;;;;;4974676;28;20050;-75
2020/12/21 13:32:42;;;;;;;17.00;6.85;;;;;;;;;;4974573;28;20042;-76
2020/12/21 13:35:08;;;;;;;13.07;5.43;;;;;;;;;;4973947;28;20030;-76
2020/12/21 13:37:33;;;;;;;13.80;6.00;;;;;;;;;;4973997;28;20591;-76
2020/12/21 13:39:58;;;;;;;11.98;5.53;;;;;;;;;;4974515;28;20404;-75
2020/12/21 13:42:23;;;;;;;9.93;3.78;;;;;;;;;;4974517;28;20038;-75
2020/12/21 13:44:49;;;;;;;17.08;5.85;;;;;;;;;;4973772;28;20034;-75
2020/12/21 13:47:14;;;;;;;14.27;4.10;;;;;;;;;;4974107;28;20454;-75
2020/12/21 13:49:40;;;;;;;11.73;4.05;;;;;;;;;;4974256;28;20105;-76
2020/12/21 13:52:05;;;;;;;16.27;3.70;;;;;;;;;;4974388;28;20085;-75
2020/12/21 13:54:31;;;;;;;10.55;3.88;;;;;;;;;;4974411;28;20481;-75
2020/12/21 13:56:56;;;;;;;7.68;4.13;;;;;;;;;;4974067;28;20035;-75
2020/12/21 13:59:22;;;;;;;15.65;3.92;;;;;;;;;;4974071;28;20035;-75
2020/12/21 14:01:47;;;;;;;13.95;3.80;;;;;;;;;;4989179;28;20078;-75
2020/12/21 14:04:12;;;;;;;7.80;3.45;;;;;;;;;;4974215;28;20090;-74
2020/12/21 14:06:38;;;;;;;10.23;3.67;;;;;;;;;;4974058;28;20039;-74
2020/12/21 14:09:04;;;;;;;18.35;4.30;;;;;;;;;;4974143;28;20042;-73
2020/12/21 14:11:29;;;;;;;12.38;3.53;;;;;;;;;;4972986;28;20381;-74
2020/12/21 14:13:55;;;;;;;13.75;6.18;;;;;;;;;;4974039;28;20042;-74
2020/12/21 14:16:21;;;;;;;11.55;5.28;;;;;;;;;;4973877;28;20058;-74
2020/12/21 14:18:50;;;;;;;7.50;3.90;;;;;;;;;;4955733;28;532865;-75
2020/12/21 14:21:18;;;;;;;11.85;4.03;;;;;;;;;;4973477;28;20404;-74
2020/12/21 14:23:44;;;;;;;13.50;3.60;;;;;;;;;;4974676;28;20066;-74